createdAt,value
2023-06-29T00:01:12.677Z,16.68
2023-06-29T00:04:13.043Z,16.71
2023-06-29T00:06:51.574Z,16.65
2023-06-29T00:09:30.965Z,16.65
2023-06-29T00:12:11.059Z,16.63
2023-06-29T00:14:49.473Z,16.59
2023-06-29T00:17:28.920Z,16.51
2023-06-29T00:20:22.492Z,16.45
2023-06-29T00:22:54.185Z,16.46
2023-06-29T00:25:33.600Z,16.52
2023-06-29T00:28:13.818Z,16.51
2023-06-29T00:30:52.390Z,16.49
2023-06-29T00:33:31.332Z,16.49
2023-06-29T00:36:10.659Z,16.46
2023-06-29T00:38:49.495Z,16.42
2023-06-29T00:41:28.189Z,16.42
2023-06-29T00:44:06.513Z,16.38
2023-06-29T00:46:45.497Z,16.38
2023-06-29T00:49:24.682Z,16.36
2023-06-29T00:52:04.008Z,16.36
2023-06-29T00:54:43.487Z,16.34
2023-06-29T00:57:22.282Z,16.31
2023-06-29T01:00:01.067Z,16.30
2023-06-29T01:02:42.516Z,16.31
2023-06-29T01:05:22.713Z,16.34
2023-06-29T01:08:27.551Z,16.30
2023-06-29T01:10:59.944Z,16.19
2023-06-29T01:13:36.727Z,16.21
2023-06-29T01:16:16.436Z,16.22
2023-06-29T01:18:56.643Z,16.22
2023-06-29T01:21:38.050Z,16.22
2023-06-29T01:24:17.650Z,16.27
2023-06-29T01:26:56.106Z,16.18
2023-06-29T01:29:34.609Z,16.11
2023-06-29T01:32:15.540Z,16.05
2023-06-29T01:34:55.649Z,16.04
2023-06-29T01:37:38.962Z,16.02
2023-06-29T01:40:14.036Z,15.99
2023-06-29T01:42:53.943Z,15.95
2023-06-29T01:45:33.387Z,15.87
2023-06-29T01:48:06.506Z,15.77
2023-06-29T01:50:41.195Z,15.77
2023-06-29T01:53:20.072Z,15.79
2023-06-29T01:55:58.210Z,15.81
2023-06-29T01:58:37.134Z,15.76
2023-06-29T02:01:16.381Z,15.72
2023-06-29T02:03:55.161Z,15.67
2023-06-29T02:06:33.898Z,15.69
2023-06-29T02:09:05.961Z,15.76
2023-06-29T02:11:53.980Z,15.72
2023-06-29T02:14:32.466Z,15.74
2023-06-29T02:17:12.360Z,15.70
2023-06-29T02:19:51.247Z,15.72
2023-06-29T02:22:30.033Z,15.70
2023-06-29T02:25:00.327Z,15.74
2023-06-29T02:27:37.414Z,15.67
2023-06-29T02:30:16.305Z,15.64
2023-06-29T02:32:55.461Z,15.65
2023-06-29T02:35:33.935Z,15.65
2023-06-29T02:38:04.526Z,15.68
2023-06-29T02:40:43.040Z,15.76
2023-06-29T02:43:21.158Z,15.81
2023-06-29T02:45:59.670Z,15.85
2023-06-29T02:48:38.264Z,15.86
2023-06-29T02:51:16.419Z,15.91
2023-06-29T02:53:54.934Z,15.94
2023-06-29T02:56:33.635Z,16.00
2023-06-29T02:59:06.426Z,15.95
2023-06-29T03:01:38.899Z,15.96
2023-06-29T03:04:17.594Z,15.99
2023-06-29T03:06:49.278Z,16.04
2023-06-29T03:09:27.276Z,16.08
2023-06-29T03:12:05.948Z,16.16
2023-06-29T03:14:44.493Z,16.25
2023-06-29T03:17:25.990Z,16.32
2023-06-29T03:20:04.278Z,16.36
2023-06-29T03:22:42.303Z,16.37
2023-06-29T03:25:21.033Z,16.41
2023-06-29T03:27:59.659Z,16.39
2023-06-29T03:30:38.099Z,16.42
2023-06-29T03:33:16.605Z,16.51
2023-06-29T03:35:55.239Z,16.40
2023-06-29T03:38:33.504Z,16.42
2023-06-29T03:41:03.708Z,16.47
2023-06-29T03:43:39.812Z,16.54
2023-06-29T03:46:09.993Z,16.69
2023-06-29T03:48:50.927Z,16.73
2023-06-29T03:51:29.530Z,16.72
2023-06-29T03:54:09.158Z,16.69
2023-06-29T03:56:48.427Z,16.65
2023-06-29T03:59:26.984Z,16.64
2023-06-29T04:02:05.278Z,16.60
2023-06-29T04:04:45.093Z,16.51
2023-06-29T04:07:23.023Z,16.60
2023-06-29T04:09:53.512Z,16.61
2023-06-29T04:12:23.780Z,16.61
2023-06-29T04:14:54.063Z,16.68
2023-06-29T04:17:35.365Z,16.83
2023-06-29T04:20:15.016Z,16.96
2023-06-29T04:22:53.613Z,16.96
2023-06-29T04:25:34.477Z,16.87
2023-06-29T04:28:14.188Z,16.88
2023-06-29T04:30:52.459Z,16.78
2023-06-29T04:33:31.347Z,16.69
2023-06-29T04:36:16.940Z,16.72
2023-06-29T04:38:55.904Z,16.81
2023-06-29T04:41:37.917Z,16.69
2023-06-29T04:44:16.583Z,16.68
2023-06-29T04:46:54.830Z,16.66
2023-06-29T04:49:32.023Z,16.57
2023-06-29T04:52:12.089Z,16.58
2023-06-29T04:54:50.606Z,16.63
2023-06-29T04:57:29.933Z,16.71
2023-06-29T05:00:12.504Z,16.69
2023-06-29T05:02:51.786Z,16.67
2023-06-29T05:05:30.915Z,16.65
2023-06-29T05:08:11.823Z,16.60
2023-06-29T05:10:51.874Z,16.51
2023-06-29T05:13:30.295Z,16.46
2023-06-29T05:16:10.016Z,16.56
2023-06-29T05:18:48.248Z,16.62
2023-06-29T05:21:28.434Z,16.73
2023-06-29T05:24:06.668Z,16.78
2023-06-29T05:26:45.537Z,16.83
2023-06-29T05:29:23.566Z,16.85
2023-06-29T05:32:02.354Z,16.94
2023-06-29T05:34:41.529Z,16.95
2023-06-29T05:37:19.913Z,16.99
2023-06-29T05:40:00.893Z,16.97
2023-06-29T05:42:31.329Z,17.08
2023-06-29T05:45:04.309Z,17.10
2023-06-29T05:47:42.571Z,17.18
2023-06-29T05:50:21.914Z,17.31
2023-06-29T05:53:00.285Z,17.43
2023-06-29T05:55:38.232Z,17.40
2023-06-29T05:58:16.911Z,17.44
2023-06-29T06:00:55.199Z,17.52
2023-06-29T06:03:32.705Z,17.60
2023-06-29T06:06:12.199Z,17.66
2023-06-29T06:08:49.644Z,17.74
2023-06-29T06:11:27.177Z,17.70
2023-06-29T06:14:05.425Z,17.66
2023-06-29T06:16:38.464Z,17.72
2023-06-29T06:19:17.946Z,17.91
2023-06-29T06:21:48.391Z,18.02
2023-06-29T06:24:24.802Z,18.05
2023-06-29T06:27:02.776Z,18.16
2023-06-29T06:29:33.171Z,18.18
2023-06-29T06:32:13.446Z,18.14
2023-06-29T06:34:50.178Z,18.21
2023-06-29T06:37:27.961Z,18.46
2023-06-29T06:40:19.121Z,18.57
2023-06-29T06:42:58.978Z,18.65
2023-06-29T06:45:37.920Z,18.90
2023-06-29T06:48:16.246Z,19.14
2023-06-29T06:50:55.104Z,19.53
2023-06-29T06:53:33.575Z,19.95
2023-06-29T06:56:12.455Z,20.48
2023-06-29T06:58:51.513Z,20.55
2023-06-29T07:01:29.935Z,21.08
2023-06-29T07:04:09.133Z,21.77
2023-06-29T07:06:47.967Z,22.28
2023-06-29T07:09:21.020Z,22.90
2023-06-29T07:12:00.903Z,23.00
2023-06-29T07:14:34.831Z,22.98
2023-06-29T07:17:08.556Z,23.41
2023-06-29T07:25:09.331Z,24.26
2023-06-29T07:27:46.640Z,24.45
2023-06-29T07:30:25.418Z,24.75
2023-06-29T07:33:03.425Z,24.71
2023-06-29T07:35:41.411Z,24.66
2023-06-29T07:38:19.129Z,24.86
2023-06-29T07:40:56.927Z,25.26
2023-06-29T07:43:34.420Z,25.28
2023-06-29T07:46:12.341Z,25.36
2023-06-29T07:48:51.397Z,25.40
2023-06-29T07:51:35.890Z,25.60
2023-06-29T07:54:14.380Z,25.97
2023-06-29T07:59:33.880Z,26.07
2023-06-29T08:02:13.076Z,26.36
2023-06-29T08:07:36.390Z,26.72
2023-06-29T08:10:14.828Z,27.26
2023-06-29T08:12:54.194Z,27.66
2023-06-29T08:15:31.994Z,27.72
2023-06-29T08:18:12.758Z,27.41
2023-06-29T08:20:50.616Z,27.97
2023-06-29T08:23:21.216Z,28.45
2023-06-29T08:25:51.880Z,28.20
2023-06-29T08:28:28.398Z,28.20
2023-06-29T08:31:07.842Z,28.67
2023-06-29T08:33:46.000Z,28.97
2023-06-29T08:36:26.909Z,29.18
2023-06-29T08:39:05.616Z,28.98
2023-06-29T08:41:43.297Z,29.28
2023-06-29T08:44:21.013Z,29.58
2023-06-29T08:47:02.456Z,29.93
2023-06-29T08:49:44.007Z,29.32
2023-06-29T08:52:27.818Z,29.23
2023-06-29T08:54:58.954Z,29.20
2023-06-29T08:57:37.714Z,29.41
2023-06-29T09:00:17.093Z,29.37
2023-06-29T09:02:57.285Z,29.39
2023-06-29T09:05:37.518Z,29.54
2023-06-29T09:08:15.390Z,29.69
2023-06-29T09:10:54.070Z,30.06
2023-06-29T09:13:36.369Z,30.29
2023-06-29T09:16:16.109Z,30.52
2023-06-29T09:19:00.726Z,30.74
2023-06-29T09:21:39.950Z,30.46
2023-06-29T09:24:21.447Z,30.62
2023-06-29T09:27:03.495Z,30.18
2023-06-29T09:29:50.382Z,30.31
2023-06-29T09:32:30.915Z,29.98
2023-06-29T09:35:11.273Z,30.04
2023-06-29T09:37:51.315Z,30.30
2023-06-29T09:40:30.131Z,30.14
2023-06-29T09:43:23.630Z,30.50
2023-06-29T09:46:13.666Z,30.42
2023-06-29T09:51:36.703Z,30.68
2023-06-29T09:54:21.577Z,30.72
2023-06-29T09:57:00.672Z,30.75
2023-06-29T09:59:51.468Z,30.86
2023-06-29T10:02:31.715Z,30.60
2023-06-29T10:05:10.210Z,30.45
2023-06-29T10:07:48.928Z,29.88
2023-06-29T10:10:29.993Z,29.50
2023-06-29T10:13:10.759Z,29.32
2023-06-29T10:15:50.857Z,29.49
2023-06-29T10:18:42.392Z,29.60
2023-06-29T10:21:15.456Z,29.91
2023-06-29T10:23:53.084Z,30.08
2023-06-29T10:26:31.440Z,30.29
2023-06-29T10:29:12.535Z,30.39
2023-06-29T10:31:50.460Z,30.32
2023-06-29T10:34:21.193Z,30.24
2023-06-29T10:37:04.646Z,30.12
2023-06-29T10:39:49.848Z,30.18
2023-06-29T10:42:31.905Z,29.76
2023-06-29T10:45:25.125Z,29.74
2023-06-29T10:48:07.997Z,29.71
2023-06-29T10:50:54.885Z,29.87
2023-06-29T10:53:37.830Z,30.06
2023-06-29T10:56:33.187Z,30.00
2023-06-29T10:59:14.683Z,29.78
2023-06-29T11:01:53.294Z,29.57
2023-06-29T11:04:32.984Z,29.50
2023-06-29T11:07:14.216Z,29.76
2023-06-29T11:10:02.459Z,29.79
2023-06-29T11:12:35.211Z,29.46
2023-06-29T11:15:22.045Z,29.01
2023-06-29T11:17:56.878Z,29.05
2023-06-29T11:20:36.496Z,29.11
2023-06-29T11:23:14.898Z,29.31
2023-06-29T11:25:54.613Z,29.58
2023-06-29T11:28:35.546Z,29.52
2023-06-29T11:31:16.878Z,29.27
2023-06-29T11:33:55.645Z,29.34
2023-06-29T11:36:38.395Z,29.51
2023-06-29T11:39:15.511Z,29.35
2023-06-29T11:41:55.375Z,29.09
2023-06-29T11:44:34.556Z,28.96
2023-06-29T11:47:32.107Z,28.88
2023-06-29T11:50:17.097Z,28.63
2023-06-29T11:52:55.210Z,28.66
2023-06-29T11:55:34.662Z,28.64
2023-06-29T11:58:16.086Z,28.59
2023-06-29T12:00:59.791Z,28.67
2023-06-29T12:03:40.226Z,28.59
2023-06-29T12:06:19.881Z,28.61
2023-06-29T12:08:53.382Z,28.67
2023-06-29T12:11:32.424Z,28.60
2023-06-29T12:14:14.156Z,28.75
2023-06-29T12:19:59.079Z,28.86
2023-06-29T12:22:35.911Z,28.74
2023-06-29T12:25:19.122Z,28.76
2023-06-29T12:27:53.715Z,28.91
2023-06-29T12:30:34.194Z,28.76
2023-06-29T12:33:15.756Z,28.79
2023-06-29T12:35:54.028Z,28.81
2023-06-29T12:38:33.333Z,28.63
2023-06-29T12:41:12.081Z,28.44
2023-06-29T12:43:51.555Z,28.51
2023-06-29T12:46:30.203Z,28.66
2023-06-29T12:49:10.255Z,28.83
2023-06-29T12:51:48.801Z,29.16
2023-06-29T12:54:27.380Z,29.11
2023-06-29T12:57:05.937Z,29.06
2023-06-29T12:59:44.036Z,28.80
2023-06-29T13:02:22.149Z,28.56
2023-06-29T13:04:59.632Z,28.54
2023-06-29T13:07:38.513Z,28.66
2023-06-29T13:10:16.078Z,28.84
2023-06-29T13:12:54.504Z,29.05
2023-06-29T13:15:32.324Z,28.91
2023-06-29T13:18:11.137Z,28.62
2023-06-29T13:20:41.961Z,28.68
2023-06-29T13:23:17.545Z,28.78
2023-06-29T13:25:55.228Z,28.90
2023-06-29T13:28:34.420Z,28.99
2023-06-29T13:31:09.348Z,29.06
2023-06-29T13:33:43.942Z,29.15
2023-06-29T13:36:22.649Z,29.27
2023-06-29T13:39:01.976Z,29.27
2023-06-29T13:41:46.327Z,29.24
2023-06-29T13:44:23.950Z,29.38
2023-06-29T13:47:02.839Z,29.10
2023-06-29T13:49:43.457Z,28.97
2023-06-29T13:52:21.081Z,28.90
2023-06-29T13:54:59.539Z,29.05
2023-06-29T13:57:37.134Z,29.16
2023-06-29T14:00:16.407Z,29.09
2023-06-29T14:02:54.458Z,29.03
2023-06-29T14:05:31.063Z,28.61
2023-06-29T14:08:01.810Z,28.23
2023-06-29T14:10:39.180Z,27.92
2023-06-29T14:13:17.542Z,27.55
2023-06-29T14:15:56.032Z,27.17
2023-06-29T14:18:35.821Z,26.64
2023-06-29T14:21:15.891Z,25.88
2023-06-29T14:23:55.886Z,25.37
2023-06-29T14:26:34.330Z,25.10
2023-06-29T14:29:13.141Z,24.81
2023-06-29T14:31:51.632Z,24.63
2023-06-29T14:34:30.375Z,24.61
2023-06-29T14:37:10.082Z,24.64
2023-06-29T14:39:49.085Z,24.62
2023-06-29T14:42:28.767Z,24.68
2023-06-29T14:45:06.832Z,24.73
2023-06-29T14:47:38.716Z,24.84
2023-06-29T14:50:17.543Z,24.89
2023-06-29T14:52:56.702Z,24.88
2023-06-29T14:55:35.740Z,24.97
2023-06-29T14:58:14.966Z,24.95
2023-06-29T15:00:54.846Z,25.10
2023-06-29T15:03:26.579Z,25.16
2023-06-29T15:06:00.927Z,25.09
2023-06-29T15:08:41.135Z,25.16
2023-06-29T15:11:11.758Z,25.31
2023-06-29T15:13:50.388Z,25.38
2023-06-29T15:16:31.019Z,25.42
2023-06-29T15:19:10.305Z,25.54
2023-06-29T15:21:50.442Z,25.60
2023-06-29T15:24:27.990Z,25.68
2023-06-29T15:27:07.052Z,25.56
2023-06-29T15:29:45.697Z,25.56
2023-06-29T15:32:25.342Z,25.65
2023-06-29T15:35:04.725Z,25.71
2023-06-29T15:37:43.929Z,25.80
2023-06-29T15:40:24.172Z,25.98
2023-06-29T15:43:01.972Z,25.98
2023-06-29T15:45:40.715Z,25.97
2023-06-29T15:48:18.179Z,25.99
2023-06-29T15:50:49.360Z,26.01
2023-06-29T15:53:22.481Z,26.01
2023-06-29T15:56:00.403Z,26.13
2023-06-29T15:58:40.318Z,26.20
2023-06-29T16:01:19.851Z,26.34
2023-06-29T16:03:58.958Z,26.44
2023-06-29T16:06:37.376Z,26.37
2023-06-29T16:09:16.078Z,26.40
2023-06-29T16:11:53.712Z,26.32
2023-06-29T16:14:31.974Z,26.09
2023-06-29T16:17:11.689Z,25.97
2023-06-29T16:19:42.102Z,25.85
2023-06-29T16:22:20.215Z,25.77
2023-06-29T16:24:58.544Z,25.67
2023-06-29T16:27:37.049Z,25.61
2023-06-29T16:30:08.275Z,25.47
2023-06-29T16:32:43.144Z,25.52
2023-06-29T16:35:21.277Z,25.65
2023-06-29T16:37:59.035Z,25.74
2023-06-29T16:40:37.019Z,25.81
2023-06-29T16:43:15.704Z,25.84
2023-06-29T16:45:54.689Z,25.89
2023-06-29T16:48:33.484Z,25.90
2023-06-29T16:51:12.506Z,25.89
2023-06-29T16:53:47.192Z,25.83
2023-06-29T16:56:25.193Z,25.77
2023-06-29T16:59:03.386Z,25.64
2023-06-29T17:01:33.931Z,25.53
2023-06-29T17:04:04.965Z,25.60
2023-06-29T17:06:43.438Z,25.72
2023-06-29T17:09:21.888Z,25.70
2023-06-29T17:12:00.548Z,25.67
2023-06-29T17:14:31.172Z,25.68
2023-06-29T17:17:10.814Z,25.65
2023-06-29T17:19:50.500Z,25.57
2023-06-29T17:22:28.515Z,25.54
2023-06-29T17:25:07.570Z,25.57
2023-06-29T17:27:46.256Z,25.59
2023-06-29T17:30:24.737Z,25.60
2023-06-29T17:33:04.878Z,25.56
2023-06-29T17:35:44.630Z,25.48
2023-06-29T17:38:24.135Z,25.49
2023-06-29T17:41:02.757Z,25.42
2023-06-29T17:43:42.553Z,25.27
2023-06-29T17:46:22.051Z,25.19
2023-06-29T17:49:01.569Z,25.19
2023-06-29T17:51:33.020Z,25.17
2023-06-29T17:54:06.260Z,25.14
2023-06-29T17:56:44.760Z,25.15
2023-06-29T17:59:24.180Z,25.08
2023-06-29T18:02:02.747Z,25.05
2023-06-29T18:04:41.097Z,24.96
2023-06-29T18:07:19.597Z,24.89
2023-06-29T18:09:58.819Z,24.85
2023-06-29T18:12:37.226Z,24.80
2023-06-29T18:15:16.927Z,24.77
2023-06-29T18:17:57.485Z,24.73
2023-06-29T18:20:38.037Z,24.71
2023-06-29T18:23:16.784Z,24.68
2023-06-29T18:25:47.938Z,24.65
2023-06-29T18:28:26.713Z,24.61
2023-06-29T18:31:05.654Z,24.46
2023-06-29T18:33:43.770Z,24.05
2023-06-29T18:36:21.795Z,23.60
2023-06-29T18:39:04.839Z,23.43
2023-06-29T18:41:42.993Z,23.24
2023-06-29T18:44:20.937Z,23.10
2023-06-29T18:47:18.749Z,22.71
2023-06-29T18:49:58.662Z,21.71
2023-06-29T18:52:36.894Z,20.86
2023-06-29T18:55:15.730Z,20.27
2023-06-29T18:57:53.876Z,19.96
2023-06-29T19:00:31.738Z,19.70
2023-06-29T19:03:02.036Z,19.62
2023-06-29T19:05:33.653Z,19.57
2023-06-29T19:08:08.373Z,19.52
2023-06-29T19:10:46.965Z,19.50
2023-06-29T19:13:27.727Z,19.51
2023-06-29T19:16:06.716Z,19.48
2023-06-29T19:18:46.286Z,19.46
2023-06-29T19:21:32.342Z,19.42
2023-06-29T19:24:12.524Z,19.41
2023-06-29T19:26:48.707Z,19.41
2023-06-29T19:29:28.459Z,19.38
2023-06-29T19:32:07.810Z,19.31
2023-06-29T19:34:45.659Z,19.25
2023-06-29T19:37:26.609Z,19.28
2023-06-29T19:40:04.783Z,19.27
2023-06-29T19:42:42.836Z,19.24
2023-06-29T19:45:20.538Z,19.24
2023-06-29T19:47:58.959Z,19.25
2023-06-29T19:50:38.436Z,19.28
2023-06-29T19:53:16.966Z,19.34
2023-06-29T19:55:56.438Z,19.37
2023-06-29T19:58:34.334Z,19.44
2023-06-29T20:01:13.004Z,19.48
2023-06-29T20:03:51.167Z,19.52
2023-06-29T20:06:29.379Z,19.55
2023-06-29T20:09:08.191Z,19.55
2023-06-29T20:11:45.238Z,19.58
2023-06-29T20:14:15.769Z,19.64
2023-06-29T20:16:50.576Z,19.67
2023-06-29T20:19:28.272Z,19.62
2023-06-29T20:22:06.867Z,19.62
2023-06-29T20:24:44.997Z,19.57
2023-06-29T20:27:23.097Z,19.55
2023-06-29T20:30:00.990Z,19.60
2023-06-29T20:32:39.447Z,19.56
2023-06-29T20:35:18.725Z,19.50
2023-06-29T20:37:56.285Z,19.48
2023-06-29T20:40:34.775Z,19.47
2023-06-29T20:43:14.700Z,19.51
2023-06-29T20:45:45.979Z,19.47
2023-06-29T20:48:18.771Z,19.52
2023-06-29T20:51:00.726Z,19.37
2023-06-29T20:53:48.770Z,19.43
2023-06-29T20:56:26.960Z,19.25
2023-06-29T20:59:04.773Z,19.05
2023-06-29T21:01:35.514Z,18.99
2023-06-29T21:04:12.023Z,19.04
2023-06-29T21:06:49.748Z,19.02
2023-06-29T21:09:27.217Z,19.02
2023-06-29T21:12:04.636Z,19.05
2023-06-29T21:14:41.748Z,19.08
2023-06-29T21:17:19.944Z,19.08
2023-06-29T21:20:01.018Z,19.15
2023-06-29T21:22:39.806Z,19.20
2023-06-29T21:25:18.290Z,19.17
2023-06-29T21:27:56.476Z,19.07
2023-06-29T21:30:36.019Z,19.00
2023-06-29T21:33:14.248Z,18.97
2023-06-29T21:35:52.825Z,18.94
2023-06-29T21:38:32.401Z,18.94
2023-06-29T21:41:11.194Z,19.00
2023-06-29T21:43:48.600Z,19.06
2023-06-29T21:46:26.319Z,18.97
2023-06-29T21:48:59.469Z,18.79
2023-06-29T21:51:33.424Z,18.81
2023-06-29T21:54:15.196Z,18.80
2023-06-29T21:56:52.898Z,18.82
2023-06-29T21:59:30.878Z,18.91
2023-06-29T22:02:08.882Z,19.00
2023-06-29T22:04:46.787Z,19.01
2023-06-29T22:07:24.734Z,19.05
2023-06-29T22:10:03.742Z,19.06
2023-06-29T22:12:44.686Z,18.94
2023-06-29T22:15:22.698Z,18.84
2023-06-29T22:18:01.791Z,18.73
2023-06-29T22:20:39.607Z,18.78
2023-06-29T22:23:17.704Z,18.73
2023-06-29T22:25:55.723Z,18.68
2023-06-29T22:28:33.330Z,18.71
2023-06-29T22:31:05.371Z,18.86
2023-06-29T22:33:43.384Z,18.91
2023-06-29T22:36:18.227Z,18.89
2023-06-29T22:38:50.154Z,18.92
2023-06-29T22:41:28.735Z,18.83
2023-06-29T22:44:06.596Z,18.85
2023-06-29T22:46:44.466Z,18.86
2023-06-29T22:49:22.480Z,18.90
2023-06-29T22:51:59.544Z,18.94
2023-06-29T22:54:36.970Z,18.97
2023-06-29T22:57:14.857Z,18.95
2023-06-29T22:59:54.255Z,18.95
2023-06-29T23:02:32.120Z,18.99
2023-06-29T23:05:11.123Z,19.00
2023-06-29T23:07:48.744Z,19.02
2023-06-29T23:10:30.965Z,19.07
2023-06-29T23:13:18.438Z,19.12
2023-06-29T23:15:55.870Z,19.15
2023-06-29T23:18:33.165Z,19.13
2023-06-29T23:21:13.674Z,19.08
2023-06-29T23:23:57.021Z,19.10
2023-06-29T23:26:35.858Z,19.11
2023-06-29T23:29:14.132Z,19.15
2023-06-29T23:31:52.730Z,19.14
2023-06-29T23:34:31.282Z,19.11
2023-06-29T23:37:11.592Z,19.16
2023-06-29T23:39:49.669Z,19.21
2023-06-29T23:42:27.430Z,19.30
2023-06-29T23:45:04.851Z,19.28
2023-06-29T23:47:34.671Z,19.31
2023-06-29T23:50:12.928Z,19.31
2023-06-29T23:52:51.277Z,19.21
2023-06-29T23:55:30.573Z,19.25
2023-06-29T23:58:09.366Z,19.17
